createdAt,value
2018-08-28T00:01:42.168Z,38.10
2018-08-28T00:04:11.860Z,39.00
2018-08-28T00:06:41.695Z,40.20
2018-08-28T00:09:11.100Z,40.80
2018-08-28T00:11:40.412Z,39.80
2018-08-28T00:14:10.008Z,42.70
2018-08-28T00:16:39.629Z,38.60
2018-08-28T00:19:09.151Z,37.60
2018-08-28T00:21:41.293Z,39.20
2018-08-28T00:24:11.205Z,39.80
2018-08-28T00:26:40.714Z,39.80
2018-08-28T00:29:10.147Z,40.00
2018-08-28T00:31:39.557Z,40.90
2018-08-28T00:34:08.990Z,41.20
2018-08-28T00:36:40.901Z,41.20
2018-08-28T00:39:10.759Z,41.80
2018-08-28T00:41:43.064Z,41.60
2018-08-28T00:44:12.386Z,40.00
2018-08-28T00:46:41.855Z,36.70
2018-08-28T00:49:12.729Z,37.40
2018-08-28T00:51:42.094Z,37.50
2018-08-28T00:54:11.888Z,39.90
2018-08-28T00:56:41.295Z,39.80
2018-08-28T00:59:10.658Z,38.00
2018-08-28T01:01:39.549Z,36.00
2018-08-28T01:04:09.303Z,36.20
2018-08-28T01:06:38.967Z,37.40
2018-08-28T01:09:08.293Z,37.40
2018-08-28T01:11:38.241Z,37.10
2018-08-28T01:14:07.713Z,35.90
2018-08-28T01:16:37.324Z,36.70
2018-08-28T01:19:06.958Z,37.30
2018-08-28T01:21:36.533Z,40.70
2018-08-28T01:24:06.983Z,41.60
2018-08-28T01:26:37.278Z,43.70
2018-08-28T01:29:07.165Z,43.60
2018-08-28T01:31:36.854Z,45.20
2018-08-28T01:34:06.819Z,44.30
2018-08-28T01:36:36.436Z,46.50
2018-08-28T01:39:06.044Z,45.30
2018-08-28T01:41:35.666Z,46.50
2018-08-28T01:44:05.071Z,46.80
2018-08-28T01:46:36.628Z,47.00
2018-08-28T01:49:06.131Z,46.90
2018-08-28T01:51:36.758Z,49.40
2018-08-28T01:54:06.294Z,49.40
2018-08-28T01:56:35.576Z,49.00
2018-08-28T01:59:06.052Z,47.80
2018-08-28T02:01:35.708Z,47.70
2018-08-28T02:04:05.779Z,47.30
2018-08-28T02:06:36.231Z,47.30
2018-08-28T02:09:06.072Z,48.60
2018-08-28T02:11:35.368Z,49.10
2018-08-28T02:14:05.577Z,51.50
2018-08-28T02:16:35.526Z,51.50
2018-08-28T02:19:05.256Z,50.40
2018-08-28T02:21:34.869Z,50.40
2018-08-28T02:24:04.286Z,50.40
2018-08-28T02:26:33.917Z,50.00
2018-08-28T02:29:03.590Z,50.70
2018-08-28T02:31:33.425Z,50.60
2018-08-28T02:34:06.918Z,50.20
2018-08-28T02:36:36.700Z,50.00
2018-08-28T02:39:06.369Z,50.30
2018-08-28T02:41:35.825Z,50.10
2018-08-28T02:44:05.157Z,51.10
2018-08-28T02:46:36.100Z,50.70
2018-08-28T02:49:07.285Z,50.00
2018-08-28T02:51:37.512Z,50.20
2018-08-28T02:54:06.898Z,50.20
2018-08-28T02:56:36.419Z,50.10
2018-08-28T02:59:06.257Z,50.90
2018-08-28T03:01:36.587Z,51.20
2018-08-28T03:04:06.061Z,51.90
2018-08-28T03:06:36.071Z,51.80
2018-08-28T03:09:05.719Z,52.50
2018-08-28T03:11:35.788Z,53.10
2018-08-28T03:14:05.551Z,53.60
2018-08-28T03:16:35.078Z,53.80
2018-08-28T03:19:04.742Z,54.30
2018-08-28T03:21:34.589Z,54.80
2018-08-28T03:24:04.129Z,55.50
2018-08-28T03:26:35.380Z,56.00
2018-08-28T03:29:04.879Z,55.80
2018-08-28T03:31:35.158Z,56.10
2018-08-28T03:34:04.601Z,56.30
2018-08-28T03:36:34.333Z,56.90
2018-08-28T03:39:04.564Z,56.40
2018-08-28T03:41:34.207Z,57.20
2018-08-28T03:44:03.462Z,57.30
2018-08-28T03:46:33.092Z,57.50
2018-08-28T03:49:02.645Z,57.80
2018-08-28T03:51:33.064Z,57.00
2018-08-28T03:54:02.942Z,57.20
2018-08-28T03:56:32.551Z,57.00
2018-08-28T03:59:02.235Z,57.80
2018-08-28T04:01:31.813Z,58.80
2018-08-28T04:04:01.320Z,59.40
2018-08-28T04:06:30.849Z,59.50
2018-08-28T04:09:00.521Z,60.10
2018-08-28T04:11:30.836Z,60.40
2018-08-28T04:14:00.625Z,60.40
2018-08-28T04:16:30.542Z,62.50
2018-08-28T04:19:00.075Z,62.50
2018-08-28T04:21:29.633Z,63.80
2018-08-28T04:23:59.135Z,64.50
2018-08-28T04:26:28.445Z,64.10
2018-08-28T04:28:58.140Z,63.70
2018-08-28T04:31:28.088Z,64.00
2018-08-28T04:33:57.592Z,65.30
2018-08-28T04:36:27.261Z,64.60
2018-08-28T04:38:56.894Z,65.10
2018-08-28T04:41:26.494Z,64.60
2018-08-28T04:43:55.996Z,65.50
2018-08-28T04:46:26.966Z,66.70
2018-08-28T04:48:56.712Z,66.40
2018-08-28T04:51:26.704Z,67.40
2018-08-28T04:53:56.541Z,67.70
2018-08-28T04:56:26.966Z,68.50
2018-08-28T04:58:56.784Z,68.40
2018-08-28T05:01:26.944Z,67.80
2018-08-28T05:03:57.642Z,68.50
2018-08-28T05:06:27.747Z,68.40
2018-08-28T05:08:57.412Z,68.30
2018-08-28T05:11:26.716Z,68.90
2018-08-28T05:13:56.106Z,70.00
2018-08-28T05:16:25.573Z,70.50
2018-08-28T05:18:55.129Z,69.10
2018-08-28T05:21:24.429Z,69.00
2018-08-28T05:23:55.148Z,66.50
2018-08-28T05:26:24.568Z,66.00
2018-08-28T05:28:54.359Z,65.30
2018-08-28T05:31:23.821Z,65.60
2018-08-28T05:33:56.273Z,67.90
2018-08-28T05:36:25.620Z,67.80
2018-08-28T05:38:57.525Z,68.40
2018-08-28T05:41:27.600Z,68.30
2018-08-28T05:44:00.526Z,71.50
2018-08-28T05:46:30.817Z,71.70
2018-08-28T05:51:35.201Z,71.80
2018-08-28T05:54:05.632Z,72.40
2018-08-28T05:56:35.037Z,72.50
2018-08-28T05:59:06.841Z,72.60
2018-08-28T06:01:36.876Z,71.20
2018-08-28T06:04:08.403Z,70.70
2018-08-28T06:06:39.520Z,71.20
2018-08-28T06:09:09.997Z,72.60
2018-08-28T06:11:39.680Z,73.00
2018-08-28T06:14:11.363Z,72.80
2018-08-28T06:16:41.125Z,70.50
2018-08-28T06:19:10.626Z,71.70
2018-08-28T06:21:40.066Z,72.30
2018-08-28T06:24:10.397Z,71.30
2018-08-28T06:26:40.146Z,71.30
2018-08-28T06:29:12.301Z,73.10
2018-08-28T06:31:41.845Z,73.90
2018-08-28T06:34:11.333Z,72.60
2018-08-28T06:36:40.789Z,73.50
2018-08-28T06:39:10.520Z,74.40
2018-08-28T06:41:40.613Z,74.60
2018-08-28T06:44:11.157Z,74.70
2018-08-28T06:46:40.643Z,74.60
2018-08-28T06:49:11.258Z,74.60
2018-08-28T06:51:41.545Z,74.40
2018-08-28T06:54:11.023Z,74.40
2018-08-28T06:56:40.741Z,74.10
2018-08-28T06:59:10.312Z,74.30
2018-08-28T07:01:39.884Z,72.70
2018-08-28T07:04:09.302Z,71.60
2018-08-28T07:06:39.792Z,73.20
2018-08-28T07:09:09.020Z,73.20
2018-08-28T07:11:38.825Z,74.20
2018-08-28T07:14:08.552Z,73.40
2018-08-28T07:16:37.914Z,72.50
2018-08-28T07:19:07.936Z,72.50
2018-08-28T07:21:37.612Z,71.60
2018-08-28T07:24:07.164Z,69.50
2018-08-28T07:26:36.742Z,68.50
2018-08-28T07:29:06.434Z,68.90
2018-08-28T07:31:36.107Z,68.50
2018-08-28T07:34:06.546Z,68.20
2018-08-28T07:36:36.239Z,68.10
2018-08-28T07:39:06.530Z,67.40
2018-08-28T07:41:36.149Z,67.60
2018-08-28T07:44:05.599Z,69.30
2018-08-28T07:46:35.357Z,70.80
2018-08-28T07:49:04.639Z,71.70
2018-08-28T07:51:34.177Z,71.60
2018-08-28T07:54:04.306Z,70.90
2018-08-28T07:56:35.045Z,72.10
2018-08-28T07:59:05.158Z,72.40
2018-08-28T08:01:34.690Z,71.40
2018-08-28T08:04:04.133Z,71.70
2018-08-28T08:06:33.918Z,72.30
2018-08-28T08:09:03.763Z,72.00
2018-08-28T08:11:33.378Z,72.40
2018-08-28T08:14:03.611Z,72.20
2018-08-28T08:16:32.664Z,71.70
2018-08-28T08:19:02.108Z,70.90
2018-08-28T08:21:31.591Z,71.70
2018-08-28T08:24:01.732Z,71.80
2018-08-28T08:26:31.192Z,72.70
2018-08-28T08:29:02.011Z,74.00
2018-08-28T08:31:32.706Z,73.50
2018-08-28T08:34:02.514Z,73.30
2018-08-28T08:36:31.766Z,73.60
2018-08-28T08:39:02.112Z,74.20
2018-08-28T08:41:31.554Z,74.10
2018-08-28T08:44:00.995Z,73.90
2018-08-28T08:46:30.706Z,72.80
2018-08-28T08:49:00.556Z,73.50
2018-08-28T08:51:30.192Z,72.90
2018-08-28T08:54:00.046Z,73.50
2018-08-28T08:56:29.856Z,73.10
2018-08-28T08:59:00.119Z,72.20
2018-08-28T09:01:29.733Z,72.10
2018-08-28T09:03:59.284Z,71.70
2018-08-28T09:06:31.176Z,71.50
2018-08-28T09:09:00.579Z,71.40
2018-08-28T09:11:30.377Z,70.90
2018-08-28T09:14:00.043Z,70.10
2018-08-28T09:16:29.372Z,69.90
2018-08-28T09:18:59.100Z,69.80
2018-08-28T09:21:28.690Z,72.60
2018-08-28T09:23:59.181Z,72.40
2018-08-28T09:26:29.076Z,72.30
2018-08-28T09:28:58.673Z,72.50
2018-08-28T09:31:28.299Z,71.90
2018-08-28T09:33:57.814Z,73.40
2018-08-28T09:36:27.178Z,74.20
2018-08-28T09:38:56.866Z,74.40
2018-08-28T09:41:26.964Z,74.70
2018-08-28T09:43:56.668Z,74.70
2018-08-28T09:46:26.014Z,73.90
2018-08-28T09:48:55.956Z,74.10
2018-08-28T09:51:25.526Z,73.30
2018-08-28T09:53:55.984Z,72.50
2018-08-28T09:56:25.612Z,72.50
2018-08-28T09:58:55.389Z,73.50
2018-08-28T10:01:24.986Z,74.00
2018-08-28T10:03:55.159Z,75.40
2018-08-28T10:06:24.567Z,75.60
2018-08-28T10:08:56.256Z,76.10
2018-08-28T10:11:25.777Z,75.80
2018-08-28T10:13:56.261Z,75.40
2018-08-28T10:16:25.874Z,75.90
2018-08-28T10:18:55.237Z,76.80
2018-08-28T10:21:24.906Z,77.00
2018-08-28T10:23:55.238Z,77.90
2018-08-28T10:26:24.796Z,78.60
2018-08-28T10:28:54.346Z,79.00
2018-08-28T10:31:23.695Z,77.70
2018-08-28T10:33:52.878Z,76.00
2018-08-28T10:36:22.558Z,76.10
2018-08-28T10:38:52.516Z,78.40
2018-08-28T10:41:22.181Z,79.20
2018-08-28T10:43:51.753Z,79.30
2018-08-28T10:46:21.417Z,79.20
2018-08-28T10:48:51.100Z,79.40
2018-08-28T10:51:22.923Z,78.90
2018-08-28T10:53:52.281Z,78.80
2018-08-28T10:56:21.992Z,79.00
2018-08-28T10:58:52.253Z,79.40
2018-08-28T11:01:21.795Z,78.90
2018-08-28T11:03:51.495Z,79.50
2018-08-28T11:06:20.710Z,80.20
2018-08-28T11:08:50.538Z,79.20
2018-08-28T11:11:20.557Z,79.90
2018-08-28T11:13:50.096Z,79.40
2018-08-28T11:16:20.035Z,79.00
2018-08-28T11:18:49.705Z,79.50
2018-08-28T11:21:19.110Z,79.70
2018-08-28T11:23:48.962Z,79.90
2018-08-28T11:26:18.516Z,79.80
2018-08-28T11:28:48.780Z,80.20
2018-08-28T11:31:18.122Z,80.10
2018-08-28T11:33:47.227Z,80.30
2018-08-28T11:36:17.081Z,80.60
2018-08-28T11:38:46.515Z,81.50
2018-08-28T11:41:16.047Z,80.30
2018-08-28T11:43:45.796Z,80.50
2018-08-28T11:46:15.259Z,81.10
2018-08-28T11:48:44.891Z,81.50
2018-08-28T11:51:14.300Z,81.30
2018-08-28T11:53:43.736Z,80.90
2018-08-28T11:56:13.919Z,81.60
2018-08-28T11:58:43.442Z,81.60
2018-08-28T12:01:12.979Z,81.30
2018-08-28T12:03:42.541Z,81.60
2018-08-28T12:06:12.226Z,81.20
2018-08-28T12:08:41.825Z,80.90
2018-08-28T12:11:11.441Z,80.20
2018-08-28T12:13:40.906Z,80.10
2018-08-28T12:16:10.808Z,80.90
2018-08-28T12:18:40.365Z,80.10
2018-08-28T12:21:09.998Z,80.30
2018-08-28T12:23:39.432Z,81.20
2018-08-28T12:26:09.322Z,81.20
2018-08-28T12:28:40.387Z,80.90
2018-08-28T12:31:09.749Z,81.00
2018-08-28T12:33:39.421Z,80.60
2018-08-28T12:36:08.854Z,80.40
2018-08-28T12:38:38.328Z,80.20
2018-08-28T12:41:08.042Z,80.70
2018-08-28T12:43:38.203Z,80.90
2018-08-28T12:46:07.794Z,80.40
2018-08-28T12:48:37.556Z,80.20
2018-08-28T12:51:06.714Z,79.90
2018-08-28T12:53:36.866Z,80.40
2018-08-28T12:56:06.426Z,81.40
2018-08-28T12:58:36.002Z,81.90
2018-08-28T13:01:06.506Z,81.80
2018-08-28T13:03:35.919Z,81.80
2018-08-28T13:06:05.633Z,82.30
2018-08-28T13:08:35.097Z,82.40
2018-08-28T13:11:04.555Z,82.60
2018-08-28T13:13:34.089Z,81.70
2018-08-28T13:16:03.467Z,81.90
2018-08-28T13:18:34.187Z,82.70
2018-08-28T13:21:04.462Z,82.40
2018-08-28T13:23:34.318Z,82.70
2018-08-28T13:26:04.032Z,83.00
2018-08-28T13:28:33.360Z,83.30
2018-08-28T13:31:03.757Z,83.70
2018-08-28T13:33:33.307Z,83.60
2018-08-28T13:36:03.226Z,83.80
2018-08-28T13:38:32.978Z,83.70
2018-08-28T13:41:02.803Z,83.80
2018-08-28T13:43:32.283Z,83.40
2018-08-28T13:46:01.530Z,83.40
2018-08-28T13:48:31.769Z,83.60
2018-08-28T13:51:01.159Z,83.30
2018-08-28T13:53:30.978Z,83.40
2018-08-28T13:56:01.203Z,83.10
2018-08-28T13:58:31.646Z,83.30
2018-08-28T14:01:01.172Z,83.30
2018-08-28T14:03:30.490Z,83.00
2018-08-28T14:06:00.264Z,81.80
2018-08-28T14:08:29.646Z,81.70
2018-08-28T14:10:59.144Z,81.20
2018-08-28T14:13:29.981Z,80.30
2018-08-28T14:15:59.524Z,80.20
2018-08-28T14:18:29.056Z,80.20
2018-08-28T14:20:58.615Z,80.50
2018-08-28T14:23:28.018Z,81.40
2018-08-28T14:25:57.789Z,80.90
2018-08-28T14:28:28.220Z,81.70
2018-08-28T14:30:58.677Z,81.20
2018-08-28T14:33:28.264Z,80.60
2018-08-28T14:35:58.790Z,81.10
2018-08-28T14:38:28.318Z,80.80
2018-08-28T14:40:58.854Z,81.20
2018-08-28T14:43:28.424Z,81.30
2018-08-28T14:45:58.560Z,81.00
2018-08-28T14:48:28.926Z,80.50
2018-08-28T14:50:59.428Z,80.50
2018-08-28T14:53:29.104Z,80.50
2018-08-28T14:55:59.037Z,80.70
2018-08-28T14:58:28.254Z,79.20
2018-08-28T15:00:59.928Z,76.70
2018-08-28T15:03:29.385Z,74.50
2018-08-28T15:05:58.868Z,73.00
2018-08-28T15:08:29.130Z,73.80
2018-08-28T15:10:58.512Z,74.40
2018-08-28T15:13:27.952Z,74.80
2018-08-28T15:15:57.914Z,75.60
2018-08-28T15:18:27.387Z,76.40
2018-08-28T15:20:56.915Z,77.10
2018-08-28T15:23:27.314Z,76.80
2018-08-28T15:25:56.590Z,75.80
2018-08-28T15:28:26.906Z,75.10
2018-08-28T15:30:56.228Z,75.00
2018-08-28T15:33:25.884Z,74.00
2018-08-28T15:35:55.324Z,74.90
2018-08-28T15:38:25.655Z,73.30
2018-08-28T15:40:55.729Z,73.30
2018-08-28T15:43:25.406Z,72.90
2018-08-28T15:45:54.648Z,72.40
2018-08-28T15:48:24.164Z,71.10
2018-08-28T15:50:53.792Z,69.50
2018-08-28T15:53:24.617Z,70.90
2018-08-28T15:55:54.138Z,70.70
2018-08-28T15:58:23.705Z,69.30
2018-08-28T16:00:54.345Z,67.60
2018-08-28T16:03:23.682Z,60.80
2018-08-28T16:05:54.246Z,66.00
2018-08-28T16:08:23.876Z,64.80
2018-08-28T16:10:53.321Z,58.50
2018-08-28T16:13:22.680Z,55.10
2018-08-28T16:15:52.083Z,54.20
2018-08-28T16:18:25.625Z,54.80
2018-08-28T16:20:55.355Z,54.50
2018-08-28T16:23:24.873Z,52.40
2018-08-28T16:25:54.657Z,52.00
2018-08-28T16:28:24.328Z,50.60
2018-08-28T16:30:53.929Z,50.80
2018-08-28T16:33:23.571Z,51.30
2018-08-28T16:35:53.908Z,51.90
2018-08-28T16:38:24.525Z,51.20
2018-08-28T16:40:55.159Z,50.30
2018-08-28T16:43:24.640Z,50.30
2018-08-28T16:45:54.220Z,50.50
2018-08-28T16:48:24.092Z,50.20
2018-08-28T16:50:54.700Z,50.80
2018-08-28T16:53:24.197Z,50.80
2018-08-28T16:55:54.070Z,51.40
2018-08-28T16:58:23.741Z,46.50
2018-08-28T17:00:53.107Z,39.00
2018-08-28T17:03:22.861Z,32.60
2018-08-28T17:05:52.467Z,27.40
2018-08-28T17:08:22.386Z,25.90
2018-08-28T17:10:53.807Z,25.00
2018-08-28T17:13:23.190Z,26.50
2018-08-28T17:15:52.724Z,24.30
2018-08-28T17:18:22.965Z,22.60
2018-08-28T17:20:52.559Z,21.00
2018-08-28T17:23:22.273Z,19.20
2018-08-28T17:25:53.052Z,18.30
2018-08-28T17:28:22.594Z,17.60
2018-08-28T17:30:52.334Z,17.90
2018-08-28T17:33:22.803Z,17.10
2018-08-28T17:35:52.198Z,17.10
2018-08-28T17:38:21.623Z,17.10
2018-08-28T17:40:51.001Z,16.60
2018-08-28T17:43:20.687Z,16.50
2018-08-28T17:45:51.426Z,15.10
2018-08-28T17:48:20.878Z,15.00
2018-08-28T17:50:50.450Z,14.80
2018-08-28T17:53:19.950Z,14.10
2018-08-28T17:55:49.567Z,13.90
2018-08-28T17:58:19.341Z,14.20
2018-08-28T18:00:49.730Z,14.10
2018-08-28T18:03:19.289Z,14.00
2018-08-28T18:05:48.895Z,13.90
2018-08-28T18:08:18.611Z,14.00
2018-08-28T18:10:49.022Z,14.30
2018-08-28T18:13:20.426Z,14.70
2018-08-28T18:15:49.710Z,13.70
2018-08-28T18:18:19.451Z,13.60
2018-08-28T18:20:51.091Z,13.20
2018-08-28T18:23:22.296Z,13.10
2018-08-28T18:25:52.726Z,13.90
2018-08-28T18:28:22.296Z,15.90
2018-08-28T18:30:51.539Z,19.20
2018-08-28T18:33:22.180Z,21.40
2018-08-28T18:35:55.092Z,22.90
2018-08-28T18:38:25.069Z,24.00
2018-08-28T18:40:54.689Z,23.80
2018-08-28T18:43:24.407Z,25.80
2018-08-28T18:45:53.948Z,28.20
2018-08-28T18:48:23.598Z,30.00
2018-08-28T18:50:53.264Z,31.70
2018-08-28T18:53:22.828Z,31.90
2018-08-28T18:55:52.539Z,31.70
2018-08-28T18:58:22.089Z,31.50
2018-08-28T19:00:51.941Z,30.60
2018-08-28T19:03:21.674Z,31.40
2018-08-28T19:05:51.273Z,32.90
2018-08-28T19:08:20.227Z,35.20
2018-08-28T19:10:49.757Z,35.30
2018-08-28T19:13:19.272Z,35.80
2018-08-28T19:15:49.656Z,36.60
2018-08-28T19:18:19.917Z,36.60
2018-08-28T19:20:50.346Z,28.40
2018-08-28T19:23:20.054Z,28.00
2018-08-28T19:25:50.463Z,23.70
2018-08-28T19:28:20.795Z,23.70
2018-08-28T19:30:50.244Z,24.70
2018-08-28T19:33:21.208Z,27.30
2018-08-28T19:35:50.592Z,29.60
2018-08-28T19:38:19.849Z,30.00
2018-08-28T19:40:49.972Z,29.80
2018-08-28T19:43:19.566Z,29.70
2018-08-28T19:45:49.292Z,30.50
2018-08-28T19:48:19.536Z,30.90
2018-08-28T19:50:48.707Z,30.90
2018-08-28T19:53:18.973Z,31.30
2018-08-28T19:55:48.853Z,31.80
2018-08-28T19:58:19.290Z,33.10
2018-08-28T20:00:48.977Z,34.10
2018-08-28T20:03:18.982Z,33.70
2018-08-28T20:05:48.553Z,33.60
2018-08-28T20:08:18.113Z,35.10
2018-08-28T20:10:47.731Z,35.20
2018-08-28T20:13:17.327Z,36.10
2018-08-28T20:15:46.686Z,34.80
2018-08-28T20:18:16.309Z,35.70
2018-08-28T20:20:45.945Z,35.20
2018-08-28T20:23:15.778Z,36.10
2018-08-28T20:25:45.286Z,36.70
2018-08-28T20:28:15.000Z,37.80
2018-08-28T20:30:44.782Z,36.80
2018-08-28T20:33:15.833Z,37.50
2018-08-28T20:35:45.334Z,38.30
2018-08-28T20:38:19.006Z,38.10
2018-08-28T20:40:52.535Z,39.20
2018-08-28T20:43:21.930Z,38.40
2018-08-28T20:45:52.284Z,40.50
2018-08-28T20:48:22.081Z,40.40
2018-08-28T20:50:51.786Z,40.60
2018-08-28T20:53:21.460Z,41.40
2018-08-28T20:55:51.037Z,41.50
2018-08-28T20:58:20.623Z,41.90
2018-08-28T21:00:50.120Z,41.60
2018-08-28T21:03:19.574Z,41.10
2018-08-28T21:05:49.210Z,40.70
2018-08-28T21:08:18.242Z,39.90
2018-08-28T21:10:48.079Z,39.70
2018-08-28T21:13:17.748Z,39.50
2018-08-28T21:15:47.470Z,40.00
2018-08-28T21:18:16.856Z,40.60
2018-08-28T21:20:46.058Z,41.10
2018-08-28T21:23:15.350Z,41.30
2018-08-28T21:25:45.657Z,41.60
2018-08-28T21:28:16.012Z,42.30
2018-08-28T21:30:46.348Z,42.30
2018-08-28T21:33:17.196Z,42.70
2018-08-28T21:35:46.935Z,41.40
2018-08-28T21:38:16.593Z,41.10
2018-08-28T21:40:46.311Z,41.70
2018-08-28T21:43:15.548Z,40.70
2018-08-28T21:45:45.042Z,42.00
2018-08-28T21:48:14.525Z,41.30
2018-08-28T21:50:45.852Z,39.30
2018-08-28T21:53:15.436Z,39.30
2018-08-28T21:55:45.893Z,39.90
2018-08-28T21:58:15.664Z,39.00
2018-08-28T22:00:47.203Z,38.70
2018-08-28T22:03:16.675Z,39.70
2018-08-28T22:05:46.366Z,40.80
2018-08-28T22:08:16.433Z,40.40
2018-08-28T22:10:45.700Z,38.60
2018-08-28T22:13:15.419Z,39.90
2018-08-28T22:15:44.844Z,39.00
2018-08-28T22:18:14.980Z,39.90
2018-08-28T22:20:44.600Z,40.50
2018-08-28T22:23:14.936Z,40.10
2018-08-28T22:25:44.908Z,40.00
2018-08-28T22:28:14.971Z,39.80
2018-08-28T22:30:45.077Z,39.30
2018-08-28T22:33:14.775Z,39.30
2018-08-28T22:35:44.105Z,40.00
2018-08-28T22:38:15.018Z,40.50
2018-08-28T22:40:45.245Z,40.70
2018-08-28T22:43:14.752Z,40.70
2018-08-28T22:45:44.876Z,40.70
2018-08-28T22:48:14.475Z,40.70
2018-08-28T22:50:44.093Z,41.70
2018-08-28T22:53:14.363Z,41.40
2018-08-28T22:55:44.002Z,41.30
2018-08-28T22:58:14.444Z,40.40
2018-08-28T23:00:43.856Z,41.50
2018-08-28T23:03:14.571Z,41.20
2018-08-28T23:05:44.045Z,41.20
2018-08-28T23:08:13.792Z,41.00
2018-08-28T23:10:43.216Z,41.00
2018-08-28T23:13:13.518Z,41.10
2018-08-28T23:15:43.256Z,41.10
2018-08-28T23:18:12.958Z,41.20
2018-08-28T23:20:42.995Z,40.90
2018-08-28T23:23:12.363Z,40.80
2018-08-28T23:25:41.972Z,40.30
2018-08-28T23:28:12.207Z,40.50
2018-08-28T23:30:41.905Z,40.60
2018-08-28T23:33:11.277Z,41.90
2018-08-28T23:35:40.863Z,42.10
2018-08-28T23:38:10.447Z,41.70
2018-08-28T23:40:40.908Z,42.90
2018-08-28T23:43:10.388Z,42.80
2018-08-28T23:45:40.558Z,43.70
2018-08-28T23:48:10.679Z,44.30
2018-08-28T23:50:40.305Z,46.00
2018-08-28T23:53:09.835Z,47.10
2018-08-28T23:55:39.221Z,47.70
2018-08-28T23:58:09.516Z,47.50
